createdAt,value
2023-04-20T00:02:03.058Z,2.10
2023-04-20T00:04:30.749Z,2.40
2023-04-20T00:06:58.654Z,1.80
2023-04-20T00:09:27.967Z,2.38
2023-04-20T00:11:56.859Z,2.20
2023-04-20T00:14:24.406Z,1.85
2023-04-20T00:16:52.048Z,2.25
2023-04-20T00:19:20.931Z,2.30
2023-04-20T00:21:48.797Z,2.35
2023-04-20T00:24:16.368Z,2.38
2023-04-20T00:26:43.884Z,1.92
2023-04-20T00:29:12.899Z,2.20
2023-04-20T00:31:40.545Z,2.20
2023-04-20T00:34:08.170Z,2.13
2023-04-20T00:36:35.782Z,2.90
2023-04-20T00:39:04.901Z,2.22
2023-04-20T00:41:32.444Z,2.28
2023-04-20T00:44:00.872Z,2.40
2023-04-20T00:46:29.840Z,2.10
2023-04-20T00:48:58.374Z,2.60
2023-04-20T00:51:28.787Z,2.42
2023-04-20T00:53:56.800Z,2.30
2023-04-20T00:56:26.674Z,2.20
2023-04-20T00:58:54.255Z,2.28
2023-04-20T01:01:21.778Z,2.60
2023-04-20T01:03:50.828Z,2.40
2023-04-20T01:06:18.734Z,2.88
2023-04-20T01:08:48.241Z,2.43
2023-04-20T01:11:15.821Z,2.55
2023-04-20T01:13:43.918Z,2.22
2023-04-20T01:16:12.451Z,2.13
2023-04-20T01:18:45.060Z,2.20
2023-04-20T01:21:14.230Z,2.37
2023-04-20T01:23:43.434Z,2.17
2023-04-20T01:26:12.696Z,2.30
2023-04-20T01:28:40.334Z,2.25
2023-04-20T01:31:09.492Z,2.55
2023-04-20T01:33:37.264Z,2.50
2023-04-20T01:36:05.930Z,2.20
2023-04-20T01:38:34.759Z,2.40
2023-04-20T01:41:05.445Z,2.30
2023-04-20T01:43:34.658Z,2.53
2023-04-20T01:46:02.550Z,2.40
2023-04-20T01:48:30.105Z,2.50
2023-04-20T01:50:57.668Z,2.58
2023-04-20T01:53:25.600Z,2.70
2023-04-20T01:55:53.193Z,2.40
2023-04-20T01:58:24.760Z,2.33
2023-04-20T02:00:52.340Z,2.50
2023-04-20T02:03:20.179Z,2.40
2023-04-20T02:05:48.056Z,2.80
2023-04-20T02:08:15.618Z,2.75
2023-04-20T02:10:43.226Z,2.87
2023-04-20T02:13:11.522Z,3.35
2023-04-20T02:15:40.574Z,2.70
2023-04-20T02:18:08.843Z,2.67
2023-04-20T02:20:36.640Z,2.67
2023-04-20T02:23:04.229Z,2.53
2023-04-20T02:25:31.791Z,3.30
2023-04-20T02:27:59.338Z,2.83
2023-04-20T02:30:26.924Z,2.50
2023-04-20T02:32:55.858Z,3.00
2023-04-20T02:35:23.836Z,3.10
2023-04-20T02:37:51.345Z,2.90
2023-04-20T02:40:18.947Z,3.33
2023-04-20T02:42:46.538Z,3.13
2023-04-20T02:45:14.134Z,3.10
2023-04-20T02:47:44.151Z,3.50
2023-04-20T02:50:15.951Z,2.88
2023-04-20T02:53:02.540Z,3.17
2023-04-20T02:55:33.164Z,3.00
2023-04-20T02:58:05.981Z,2.95
2023-04-20T03:00:59.457Z,2.70
2023-04-20T03:03:28.235Z,3.00
2023-04-20T03:05:57.580Z,3.00
2023-04-20T03:08:25.582Z,3.20
2023-04-20T03:10:55.240Z,2.83
2023-04-20T03:13:22.833Z,3.47
2023-04-20T03:15:56.805Z,3.10
2023-04-20T03:18:35.362Z,3.08
2023-04-20T03:21:04.564Z,3.47
2023-04-20T03:23:32.622Z,3.25
2023-04-20T03:26:02.115Z,3.23
2023-04-20T03:28:43.119Z,3.30
2023-04-20T03:31:14.542Z,3.13
2023-04-20T03:33:42.315Z,3.20
2023-04-20T03:36:12.182Z,3.45
2023-04-20T03:38:39.788Z,3.30
2023-04-20T03:41:08.353Z,3.60
2023-04-20T03:43:36.120Z,3.63
2023-04-20T03:46:03.896Z,3.30
2023-04-20T03:48:31.496Z,3.30
2023-04-20T03:50:59.224Z,3.63
2023-04-20T03:53:28.962Z,3.05
2023-04-20T03:55:56.746Z,4.22
2023-04-20T03:58:24.288Z,3.40
2023-04-20T04:01:08.719Z,3.45
2023-04-20T04:03:39.773Z,3.10
2023-04-20T04:06:08.525Z,3.67
2023-04-20T04:08:37.398Z,3.80
2023-04-20T04:11:05.663Z,3.83
2023-04-20T04:13:34.698Z,3.70
2023-04-20T04:16:04.177Z,3.53
2023-04-20T04:18:33.092Z,4.15
2023-04-20T04:21:08.040Z,4.10
2023-04-20T04:23:38.085Z,3.60
2023-04-20T04:26:13.071Z,3.78
2023-04-20T04:28:45.822Z,4.17
2023-04-20T04:31:21.349Z,3.67
2023-04-20T04:33:49.539Z,4.13
2023-04-20T04:36:26.784Z,4.15
2023-04-20T04:38:56.634Z,3.90
2023-04-20T04:41:25.400Z,4.20
2023-04-20T04:43:55.900Z,3.85
2023-04-20T04:46:29.842Z,4.30
2023-04-20T04:49:00.807Z,4.30
2023-04-20T04:51:28.387Z,3.70
2023-04-20T04:53:57.249Z,3.70
2023-04-20T04:56:24.765Z,4.05
2023-04-20T04:58:52.383Z,4.10
2023-04-20T05:01:19.984Z,4.30
2023-04-20T05:03:47.941Z,4.20
2023-04-20T05:06:15.561Z,4.57
2023-04-20T05:08:43.103Z,4.00
2023-04-20T05:11:12.104Z,4.00
2023-04-20T05:13:39.647Z,4.25
2023-04-20T05:16:07.820Z,4.22
2023-04-20T05:18:35.406Z,4.43
2023-04-20T05:21:03.156Z,4.40
2023-04-20T05:23:30.701Z,4.30
2023-04-20T05:25:58.346Z,3.92
2023-04-20T05:28:27.274Z,4.72
2023-04-20T05:30:55.630Z,4.30
2023-04-20T05:33:23.483Z,4.30
2023-04-20T05:35:51.542Z,4.40
2023-04-20T05:38:19.082Z,4.55
2023-04-20T05:40:46.808Z,3.97
2023-04-20T05:43:14.316Z,4.27
2023-04-20T05:45:43.277Z,4.32
2023-04-20T05:48:10.905Z,5.10
2023-04-20T05:50:38.488Z,4.90
2023-04-20T05:53:06.291Z,5.10
2023-04-20T05:55:33.818Z,4.30
2023-04-20T05:58:01.441Z,4.40
2023-04-20T06:00:29.002Z,4.28
2023-04-20T06:02:58.067Z,4.50
2023-04-20T06:05:25.824Z,4.55
2023-04-20T06:07:53.435Z,4.20
2023-04-20T06:10:21.239Z,4.43
2023-04-20T06:12:49.032Z,4.00
2023-04-20T06:15:16.697Z,4.55
2023-04-20T06:17:44.308Z,4.57
2023-04-20T06:20:13.309Z,4.17
2023-04-20T06:22:43.440Z,4.70
2023-04-20T06:25:11.484Z,4.72
2023-04-20T06:27:39.057Z,4.47
2023-04-20T06:30:07.779Z,4.20
2023-04-20T06:32:35.300Z,4.83
2023-04-20T06:35:04.072Z,4.90
2023-04-20T06:37:32.946Z,5.28
2023-04-20T06:40:00.458Z,5.00
2023-04-20T06:42:28.033Z,5.30
2023-04-20T06:44:58.024Z,5.03
2023-04-20T06:47:31.263Z,4.68
2023-04-20T06:49:59.170Z,5.22
2023-04-20T06:52:26.980Z,5.45
2023-04-20T06:54:55.883Z,5.28
2023-04-20T06:57:23.431Z,5.00
2023-04-20T06:59:50.930Z,5.03
2023-04-20T07:02:18.573Z,5.30
2023-04-20T07:04:46.257Z,4.70
2023-04-20T07:07:13.884Z,5.10
2023-04-20T07:09:41.400Z,5.07
2023-04-20T07:12:11.347Z,5.18
2023-04-20T07:14:39.280Z,4.65
2023-04-20T07:17:06.904Z,5.20
2023-04-20T07:19:34.906Z,5.13
2023-04-20T07:22:02.446Z,4.70
2023-04-20T07:24:29.986Z,4.97
2023-04-20T07:26:58.233Z,5.07
2023-04-20T07:29:27.145Z,5.43
2023-04-20T07:31:54.786Z,4.50
2023-04-20T07:34:22.752Z,4.57
2023-04-20T07:36:50.286Z,4.88
2023-04-20T07:39:18.132Z,4.88
2023-04-20T07:41:45.810Z,5.05
2023-04-20T07:44:13.908Z,5.25
2023-04-20T07:46:42.850Z,4.83
2023-04-20T07:49:10.462Z,5.22
2023-04-20T07:51:38.033Z,5.63
2023-04-20T07:54:05.666Z,5.50
2023-04-20T07:56:33.304Z,4.95
2023-04-20T07:59:00.869Z,4.83
2023-04-20T08:01:28.394Z,5.15
2023-04-20T08:03:57.566Z,5.13
2023-04-20T08:06:25.595Z,5.40
2023-04-20T08:08:53.112Z,4.40
2023-04-20T08:11:21.533Z,4.57
2023-04-20T08:13:49.099Z,4.97
2023-04-20T08:16:16.695Z,5.13
2023-04-20T08:18:44.316Z,4.72
2023-04-20T08:21:13.674Z,5.30
2023-04-20T08:23:41.211Z,4.87
2023-04-20T08:26:08.895Z,4.80
2023-04-20T08:28:36.637Z,4.85
2023-04-20T08:31:04.174Z,4.93
2023-04-20T08:33:32.098Z,5.25
2023-04-20T08:35:59.632Z,5.00
2023-04-20T08:38:33.649Z,5.20
2023-04-20T08:41:02.136Z,5.60
2023-04-20T08:43:29.794Z,4.85
2023-04-20T08:45:59.611Z,5.80
2023-04-20T08:48:29.124Z,5.40
2023-04-20T08:50:56.826Z,5.80
2023-04-20T08:53:24.344Z,5.82
2023-04-20T08:55:53.223Z,5.50
2023-04-20T08:58:21.001Z,5.25
2023-04-20T09:00:49.263Z,5.43
2023-04-20T09:03:17.250Z,5.90
2023-04-20T09:05:46.416Z,5.50
2023-04-20T09:08:13.972Z,5.93
2023-04-20T09:10:43.013Z,5.35
2023-04-20T09:13:22.472Z,5.93
2023-04-20T09:15:50.076Z,5.82
2023-04-20T09:18:18.728Z,5.65
2023-04-20T09:20:46.315Z,5.50
2023-04-20T09:23:14.780Z,6.20
2023-04-20T09:25:43.578Z,6.00
2023-04-20T09:28:13.601Z,5.95
2023-04-20T09:30:43.774Z,5.78
2023-04-20T09:33:12.522Z,5.75
2023-04-20T09:35:41.863Z,5.75
2023-04-20T09:38:09.875Z,5.93
2023-04-20T09:40:37.569Z,5.80
2023-04-20T09:43:10.711Z,6.18
2023-04-20T09:45:39.814Z,5.88
2023-04-20T09:48:08.415Z,6.18
2023-04-20T09:50:48.120Z,5.53
2023-04-20T09:53:18.244Z,5.90
2023-04-20T09:55:47.579Z,6.32
2023-04-20T09:58:15.452Z,6.63
2023-04-20T10:00:44.692Z,5.90
2023-04-20T10:03:12.706Z,6.03
2023-04-20T10:05:40.964Z,6.00
2023-04-20T10:08:08.717Z,6.65
2023-04-20T10:10:46.959Z,6.35
2023-04-20T10:13:15.680Z,6.30
2023-04-20T10:15:44.699Z,6.30
2023-04-20T10:18:20.047Z,6.43
2023-04-20T10:20:47.911Z,6.57
2023-04-20T10:23:16.353Z,6.10
2023-04-20T10:25:45.367Z,6.20
2023-04-20T10:28:12.999Z,6.80
2023-04-20T10:30:53.584Z,5.95
2023-04-20T10:33:22.785Z,6.60
2023-04-20T10:35:52.009Z,6.80
2023-04-20T10:38:30.097Z,6.50
2023-04-20T10:40:57.859Z,6.10
2023-04-20T10:43:25.470Z,6.40
2023-04-20T10:45:54.411Z,6.03
2023-04-20T10:48:22.063Z,7.32
2023-04-20T10:50:49.768Z,6.10
2023-04-20T10:53:21.955Z,6.63
2023-04-20T10:55:59.193Z,6.43
2023-04-20T10:58:26.861Z,6.35
2023-04-20T11:01:04.107Z,6.97
2023-04-20T11:03:34.319Z,6.53
2023-04-20T11:06:03.630Z,6.97
2023-04-20T11:08:39.457Z,6.80
2023-04-20T11:11:08.770Z,6.90
2023-04-20T11:13:37.741Z,6.85
2023-04-20T11:16:13.189Z,7.75
2023-04-20T11:18:51.399Z,7.40
2023-04-20T11:21:19.063Z,6.75
2023-04-20T11:23:46.987Z,7.30
2023-04-20T11:26:14.659Z,7.10
2023-04-20T11:28:54.387Z,7.65
2023-04-20T11:31:25.561Z,6.77
2023-04-20T11:33:53.453Z,6.50
2023-04-20T11:36:22.437Z,6.90
2023-04-20T11:38:50.428Z,6.10
2023-04-20T11:41:18.859Z,7.00
2023-04-20T11:43:46.587Z,7.10
2023-04-20T11:46:15.951Z,6.60
2023-04-20T11:48:45.522Z,6.57
2023-04-20T11:51:13.257Z,7.13
2023-04-20T11:53:41.291Z,6.72
2023-04-20T11:56:09.716Z,7.50
2023-04-20T11:58:38.089Z,7.20
2023-04-20T12:01:06.736Z,7.45
2023-04-20T12:03:34.627Z,7.40
2023-04-20T12:06:03.724Z,7.45
2023-04-20T12:08:32.074Z,7.40
2023-04-20T12:10:59.773Z,7.85
2023-04-20T12:13:27.320Z,8.88
2023-04-20T12:15:55.100Z,8.45
2023-04-20T12:18:23.134Z,7.35
2023-04-20T12:20:51.508Z,7.60
2023-04-20T12:23:20.422Z,7.28
2023-04-20T12:25:47.977Z,7.55
2023-04-20T12:28:15.939Z,7.13
2023-04-20T12:30:43.580Z,7.95
2023-04-20T12:33:11.513Z,7.73
2023-04-20T12:35:39.302Z,8.20
2023-04-20T12:38:07.435Z,7.30
2023-04-20T12:40:37.120Z,7.57
2023-04-20T12:43:04.792Z,7.70
2023-04-20T12:45:32.496Z,7.50
2023-04-20T12:48:00.777Z,7.07
2023-04-20T12:50:28.541Z,8.05
2023-04-20T12:52:58.275Z,8.10
2023-04-20T12:55:26.742Z,7.88
2023-04-20T12:57:55.743Z,7.80
2023-04-20T13:00:23.377Z,8.10
2023-04-20T13:02:51.503Z,7.68
2023-04-20T13:05:19.849Z,7.85
2023-04-20T13:07:47.537Z,8.57
2023-04-20T13:10:15.273Z,8.23
2023-04-20T13:12:42.912Z,8.52
2023-04-20T13:15:13.057Z,9.23
2023-04-20T13:17:41.410Z,8.43
2023-04-20T13:20:10.107Z,8.50
2023-04-20T13:22:47.051Z,8.00
2023-04-20T13:25:25.365Z,9.25
2023-04-20T13:27:55.083Z,8.60
2023-04-20T13:30:24.798Z,9.13
2023-04-20T13:32:52.713Z,8.50
2023-04-20T13:35:20.473Z,8.23
2023-04-20T13:37:48.112Z,8.38
2023-04-20T13:40:16.221Z,8.50
2023-04-20T13:42:44.058Z,8.18
2023-04-20T13:45:12.687Z,8.68
2023-04-20T13:47:41.900Z,8.50
2023-04-20T13:50:10.678Z,9.20
2023-04-20T13:52:38.364Z,8.55
2023-04-20T13:55:06.416Z,8.85
2023-04-20T13:57:34.146Z,8.73
2023-04-20T14:00:02.632Z,8.57
2023-04-20T14:02:33.469Z,8.43
2023-04-20T14:05:04.158Z,9.00
2023-04-20T14:07:32.100Z,8.07
2023-04-20T14:10:00.394Z,8.05
2023-04-20T14:12:28.481Z,8.03
2023-04-20T14:14:58.415Z,7.80
2023-04-20T14:17:26.540Z,8.80
2023-04-20T14:19:54.210Z,8.90
2023-04-20T14:22:23.134Z,8.23
2023-04-20T14:24:50.767Z,8.57
2023-04-20T14:27:18.446Z,8.27
2023-04-20T14:29:46.098Z,8.80
2023-04-20T14:32:13.835Z,8.93
2023-04-20T14:34:41.586Z,9.00
2023-04-20T14:37:09.702Z,8.30
2023-04-20T14:39:38.618Z,8.80
2023-04-20T14:42:07.470Z,8.98
2023-04-20T14:44:35.143Z,8.48
2023-04-20T14:47:03.341Z,8.70
2023-04-20T14:49:30.986Z,8.30
2023-04-20T14:51:58.509Z,8.18
2023-04-20T14:54:26.088Z,7.95
2023-04-20T14:56:54.962Z,7.57
2023-04-20T14:59:24.468Z,8.38
2023-04-20T15:02:01.687Z,7.97
2023-04-20T15:04:29.933Z,7.78
2023-04-20T15:06:57.668Z,7.63
2023-04-20T15:09:25.404Z,8.10
2023-04-20T15:11:52.918Z,7.72
2023-04-20T15:14:22.116Z,7.00
2023-04-20T15:16:51.861Z,7.40
2023-04-20T15:19:20.202Z,7.30
2023-04-20T15:21:47.741Z,7.70
2023-04-20T15:24:15.509Z,7.35
2023-04-20T15:26:43.127Z,7.50
2023-04-20T15:29:10.729Z,8.00
2023-04-20T15:31:40.264Z,7.30
2023-04-20T15:34:07.788Z,7.28
2023-04-20T15:36:35.411Z,7.25
2023-04-20T15:39:03.730Z,7.53
2023-04-20T15:41:31.261Z,7.45
2023-04-20T15:43:58.829Z,7.45
2023-04-20T15:46:26.753Z,7.00
2023-04-20T15:48:55.894Z,7.45
2023-04-20T15:51:24.696Z,6.57
2023-04-20T15:53:52.663Z,7.32
2023-04-20T15:56:21.944Z,7.47
2023-04-20T15:58:50.132Z,7.22
2023-04-20T16:01:18.655Z,7.20
2023-04-20T16:03:47.592Z,7.20
2023-04-20T16:06:16.820Z,7.05
2023-04-20T16:08:45.237Z,7.40
2023-04-20T16:11:12.813Z,7.70
2023-04-20T16:13:40.317Z,6.80
2023-04-20T16:16:08.751Z,6.97
2023-04-20T16:18:36.370Z,7.32
2023-04-20T16:21:04.033Z,7.57
2023-04-20T16:23:32.960Z,7.35
2023-04-20T16:26:00.542Z,7.78
2023-04-20T16:28:28.074Z,7.07
2023-04-20T16:30:55.652Z,7.13
2023-04-20T16:33:23.586Z,7.63
2023-04-20T16:35:51.139Z,7.03
2023-04-20T16:38:20.092Z,7.57
2023-04-20T16:40:49.003Z,6.70
2023-04-20T16:43:16.523Z,7.25
2023-04-20T16:45:44.068Z,7.57
2023-04-20T16:48:11.761Z,7.47
2023-04-20T16:50:40.369Z,7.53
2023-04-20T16:53:09.658Z,7.13
2023-04-20T16:55:37.260Z,7.60
2023-04-20T16:58:06.401Z,7.53
2023-04-20T17:00:35.292Z,7.22
2023-04-20T17:03:06.703Z,7.70
2023-04-20T17:05:34.462Z,7.77
2023-04-20T17:08:01.979Z,7.10
2023-04-20T17:10:29.596Z,7.20
2023-04-20T17:12:57.177Z,6.97
2023-04-20T17:15:26.191Z,7.28
2023-04-20T17:17:53.776Z,7.27
2023-04-20T17:20:21.527Z,6.75
2023-04-20T17:22:49.074Z,6.80
2023-04-20T17:25:16.797Z,6.95
2023-04-20T17:27:44.318Z,7.55
2023-04-20T17:30:12.869Z,7.53
2023-04-20T17:32:41.909Z,7.60
2023-04-20T17:35:09.790Z,7.22
2023-04-20T17:37:38.023Z,7.25
2023-04-20T17:40:07.595Z,7.65
2023-04-20T17:42:35.189Z,6.73
2023-04-20T17:45:02.781Z,7.07
2023-04-20T17:47:32.455Z,6.90
2023-04-20T17:50:01.551Z,7.13
2023-04-20T17:52:29.090Z,7.38
2023-04-20T17:54:56.617Z,7.20
2023-04-20T17:57:24.217Z,6.95
2023-04-20T17:59:51.801Z,6.72
2023-04-20T18:02:19.482Z,7.40
2023-04-20T18:04:47.294Z,7.18
2023-04-20T18:07:17.685Z,6.90
2023-04-20T18:09:45.478Z,7.45
2023-04-20T18:12:13.024Z,7.38
2023-04-20T18:14:42.275Z,7.30
2023-04-20T18:17:09.793Z,6.78
2023-04-20T18:19:37.372Z,6.83
2023-04-20T18:22:05.012Z,7.22
2023-04-20T18:24:33.984Z,7.05
2023-04-20T18:27:01.867Z,7.25
2023-04-20T18:29:29.827Z,6.70
2023-04-20T18:31:59.094Z,7.30
2023-04-20T18:34:29.940Z,7.70
2023-04-20T18:36:57.915Z,6.75
2023-04-20T18:39:25.952Z,7.30
2023-04-20T18:41:54.823Z,7.47
2023-04-20T18:44:22.556Z,7.63
2023-04-20T18:46:50.391Z,7.50
2023-04-20T18:49:17.981Z,7.47
2023-04-20T18:51:45.540Z,8.07
2023-04-20T18:54:13.058Z,7.60
2023-04-20T18:56:40.703Z,7.07
2023-04-20T18:59:10.627Z,8.00
2023-04-20T19:01:40.481Z,7.53
2023-04-20T19:04:09.211Z,7.80
2023-04-20T19:06:37.036Z,7.72
2023-04-20T19:09:07.292Z,7.07
2023-04-20T19:11:35.752Z,7.20
2023-04-20T19:14:03.296Z,7.72
2023-04-20T19:16:33.045Z,7.75
2023-04-20T19:19:01.267Z,7.75
2023-04-20T19:21:28.842Z,8.07
2023-04-20T19:23:56.589Z,7.78
2023-04-20T19:26:24.868Z,7.13
2023-04-20T19:28:53.343Z,7.72
2023-04-20T19:31:21.098Z,7.55
2023-04-20T19:33:50.096Z,7.83
2023-04-20T19:36:19.034Z,7.90
2023-04-20T19:38:46.650Z,7.28
2023-04-20T19:41:14.221Z,7.57
2023-04-20T19:43:41.751Z,8.40
2023-04-20T19:46:09.769Z,7.90
2023-04-20T19:48:37.504Z,8.45
2023-04-20T19:51:06.626Z,7.90
2023-04-20T19:53:34.476Z,8.10
2023-04-20T19:56:04.178Z,8.13
2023-04-20T19:58:33.234Z,8.30
2023-04-20T20:01:01.110Z,7.28
2023-04-20T20:03:28.788Z,7.80
2023-04-20T20:05:56.519Z,7.82
2023-04-20T20:08:25.496Z,8.65
2023-04-20T20:10:53.077Z,7.90
2023-04-20T20:13:20.605Z,8.07
2023-04-20T20:15:48.182Z,8.07
2023-04-20T20:18:15.897Z,8.38
2023-04-20T20:20:43.404Z,8.45
2023-04-20T20:23:10.929Z,8.13
2023-04-20T20:25:40.032Z,8.15
2023-04-20T20:28:07.593Z,8.60
2023-04-20T20:30:35.182Z,8.20
2023-04-20T20:33:02.831Z,8.40
2023-04-20T20:35:31.579Z,8.50
2023-04-20T20:37:59.494Z,8.75
2023-04-20T20:40:27.278Z,8.77
2023-04-20T20:42:56.711Z,8.27
2023-04-20T20:45:24.332Z,9.35
2023-04-20T20:47:52.074Z,8.77
2023-04-20T20:50:20.063Z,8.77
2023-04-20T20:52:47.770Z,8.77
2023-04-20T20:55:15.294Z,8.55
2023-04-20T20:57:42.846Z,9.73
2023-04-20T21:00:13.662Z,8.77
2023-04-20T21:02:42.009Z,8.73
2023-04-20T21:05:10.332Z,9.98
2023-04-20T21:07:38.059Z,10.40
2023-04-20T21:10:06.544Z,9.40
2023-04-20T21:12:34.128Z,10.20
2023-04-20T21:15:01.674Z,9.65
2023-04-20T21:17:31.077Z,10.30
2023-04-20T21:19:58.828Z,9.73
2023-04-20T21:22:27.075Z,10.00
2023-04-20T21:24:54.635Z,9.37
2023-04-20T21:27:22.155Z,10.18
2023-04-20T21:29:49.678Z,9.65
2023-04-20T21:32:17.284Z,9.57
2023-04-20T21:34:46.338Z,10.13
2023-04-20T21:37:13.879Z,9.77
2023-04-20T21:39:41.480Z,9.90
2023-04-20T21:42:09.025Z,9.98
2023-04-20T21:44:36.602Z,9.10
2023-04-20T21:47:04.130Z,9.30
2023-04-20T21:49:31.649Z,10.37
2023-04-20T21:52:00.544Z,9.73
2023-04-20T21:54:28.105Z,9.82
2023-04-20T21:56:55.686Z,10.18
2023-04-20T21:59:23.195Z,9.80
2023-04-20T22:01:50.800Z,9.20
2023-04-20T22:04:19.584Z,9.48
2023-04-20T22:06:48.623Z,9.10
2023-04-20T22:09:18.371Z,8.85
2023-04-20T22:11:46.376Z,9.38
2023-04-20T22:14:14.056Z,9.60
2023-04-20T22:16:41.799Z,9.85
2023-04-20T22:19:09.430Z,10.27
2023-04-20T22:21:37.001Z,9.18
2023-04-20T22:24:05.039Z,9.70
2023-04-20T22:26:33.929Z,9.10
2023-04-20T22:29:02.523Z,9.05
2023-04-20T22:31:30.191Z,10.10
2023-04-20T22:33:57.812Z,9.63
2023-04-20T22:36:25.368Z,9.25
2023-04-20T22:38:53.048Z,9.47
2023-04-20T22:41:20.589Z,9.48
2023-04-20T22:43:49.435Z,9.05
2023-04-20T22:46:17.041Z,9.35
2023-04-20T22:48:48.249Z,9.02
2023-04-20T22:51:17.110Z,9.10
2023-04-20T22:53:45.026Z,9.43
2023-04-20T22:56:13.350Z,9.60
2023-04-20T22:58:40.911Z,9.20
2023-04-20T23:01:09.832Z,9.18
2023-04-20T23:03:37.691Z,9.47
2023-04-20T23:06:06.979Z,9.82
2023-04-20T23:08:34.704Z,9.00
2023-04-20T23:11:02.394Z,8.98
2023-04-20T23:13:29.948Z,9.52
2023-04-20T23:15:57.559Z,9.17
2023-04-20T23:18:26.537Z,9.20
2023-04-20T23:20:54.037Z,9.55
2023-04-20T23:23:21.588Z,9.88
2023-04-20T23:25:49.121Z,9.32
2023-04-20T23:28:16.772Z,9.10
2023-04-20T23:30:44.406Z,8.98
2023-04-20T23:33:11.989Z,9.43
2023-04-20T23:35:40.970Z,9.25
2023-04-20T23:38:08.484Z,9.38
2023-04-20T23:40:36.013Z,9.40
2023-04-20T23:43:03.577Z,8.93
2023-04-20T23:45:31.140Z,9.32
2023-04-20T23:47:58.716Z,10.32
2023-04-20T23:50:26.323Z,9.20
2023-04-20T23:52:55.219Z,10.10
2023-04-20T23:55:23.012Z,8.88
2023-04-20T23:57:52.247Z,9.20
